Ibia, Brazil
Current Conditions -  °F | °C
As of 2:33 PM on Thursday 18 Dec 2014 (Local Time) from SBUL Reporting Station
Thunderstorm Thunderstorm  
Wind Chill: 70°   Ceiling: Unl
Heat Index: 70°   Visibility: 1.2mi
Dew Point: 68°   Wind: 7mph
Humidity: 94%   Direction: 30°NNE
Pressure: 29.94"   Gusts: NA
Location:  19.48°S, 46.54°W
Report Text: SBUL 181633Z 03006KT 010V090 2000 TSRA SCT020 FEW030CB 21/20 Q1014
Loading
Personal Weather Stations






























Interactive Weather Map New forecast layout! Learn more

10-Day Weather Forecast

Advertisements
Track Severe Weather on mobile